sensor_id;sensor_type;location;lat;lon;timestamp;P1;durP1;ratioP1;P2;durP2;ratioP2
41426;SDS011;27171;51.812;19.514;2022-10-17T00:00:38;23.80;;;21.27;;
41426;SDS011;27171;51.812;19.514;2022-10-17T00:03:39;21.52;;;19.23;;
41426;SDS011;27171;51.812;19.514;2022-10-17T00:06:40;26.10;;;22.05;;
41426;SDS011;27171;51.812;19.514;2022-10-17T00:09:42;22.75;;;20.40;;
41426;SDS011;27171;51.812;19.514;2022-10-17T00:12:43;24.40;;;21.02;;
41426;SDS011;27171;51.812;19.514;2022-10-17T00:15:45;22.50;;;20.00;;
41426;SDS011;27171;51.812;19.514;2022-10-17T00:18:46;25.05;;;22.38;;
41426;SDS011;27171;51.812;19.514;2022-10-17T00:21:48;24.13;;;20.80;;
41426;SDS011;27171;51.812;19.514;2022-10-17T00:24:49;25.83;;;23.02;;
41426;SDS011;27171;51.812;19.514;2022-10-17T00:27:50;24.30;;;21.23;;
41426;SDS011;27171;51.812;19.514;2022-10-17T00:30:55;22.88;;;20.27;;
41426;SDS011;27171;51.812;19.514;2022-10-17T00:33:57;24.17;;;21.55;;
41426;SDS011;27171;51.812;19.514;2022-10-17T00:36:58;24.98;;;22.02;;
41426;SDS011;27171;51.812;19.514;2022-10-17T00:39:59;25.30;;;22.60;;
41426;SDS011;27171;51.812;19.514;2022-10-17T00:43:00;22.23;;;19.92;;
41426;SDS011;27171;51.812;19.514;2022-10-17T00:46:01;24.17;;;20.80;;
41426;SDS011;27171;51.812;19.514;2022-10-17T00:49:04;24.10;;;21.55;;
41426;SDS011;27171;51.812;19.514;2022-10-17T00:52:12;24.05;;;21.15;;
41426;SDS011;27171;51.812;19.514;2022-10-17T00:55:24;25.17;;;22.23;;
41426;SDS011;27171;51.812;19.514;2022-10-17T00:58:28;22.90;;;20.50;;
41426;SDS011;27171;51.812;19.514;2022-10-17T01:01:29;25.17;;;20.70;;
41426;SDS011;27171;51.812;19.514;2022-10-17T01:04:31;24.20;;;21.45;;
41426;SDS011;27171;51.812;19.514;2022-10-17T01:07:33;23.90;;;21.35;;
41426;SDS011;27171;51.812;19.514;2022-10-17T01:13:59;24.48;;;21.90;;
41426;SDS011;27171;51.812;19.514;2022-10-17T01:24:17;22.45;;;20.10;;
41426;SDS011;27171;51.812;19.514;2022-10-17T01:34:12;26.52;;;22.83;;
41426;SDS011;27171;51.812;19.514;2022-10-17T01:37:26;25.30;;;22.73;;
41426;SDS011;27171;51.812;19.514;2022-10-17T01:40:44;26.08;;;22.35;;
41426;SDS011;27171;51.812;19.514;2022-10-17T01:43:54;24.80;;;22.13;;
41426;SDS011;27171;51.812;19.514;2022-10-17T01:47:03;26.15;;;21.27;;
41426;SDS011;27171;51.812;19.514;2022-10-17T01:50:11;25.33;;;22.17;;
41426;SDS011;27171;51.812;19.514;2022-10-17T01:53:38;24.52;;;21.92;;
41426;SDS011;27171;51.812;19.514;2022-10-17T01:56:41;24.02;;;21.52;;
41426;SDS011;27171;51.812;19.514;2022-10-17T01:59:44;24.98;;;22.33;;
41426;SDS011;27171;51.812;19.514;2022-10-17T02:02:51;26.30;;;23.48;;
41426;SDS011;27171;51.812;19.514;2022-10-17T02:05:56;24.92;;;22.35;;
41426;SDS011;27171;51.812;19.514;2022-10-17T02:08:57;29.75;;;22.75;;
41426;SDS011;27171;51.812;19.514;2022-10-17T02:32:10;25.75;;;23.05;;
41426;SDS011;27171;51.812;19.514;2022-10-17T02:35:26;28.20;;;23.17;;
41426;SDS011;27171;51.812;19.514;2022-10-17T02:38:30;24.65;;;21.98;;
41426;SDS011;27171;51.812;19.514;2022-10-17T02:41:35;26.38;;;23.27;;
41426;SDS011;27171;51.812;19.514;2022-10-17T02:44:39;25.38;;;22.65;;
41426;SDS011;27171;51.812;19.514;2022-10-17T02:47:47;25.83;;;21.95;;
41426;SDS011;27171;51.812;19.514;2022-10-17T02:51:01;24.60;;;21.88;;
41426;SDS011;27171;51.812;19.514;2022-10-17T02:57:33;24.85;;;21.48;;
41426;SDS011;27171;51.812;19.514;2022-10-17T03:00:39;26.17;;;22.77;;
41426;SDS011;27171;51.812;19.514;2022-10-17T03:03:41;24.50;;;21.90;;
41426;SDS011;27171;51.812;19.514;2022-10-17T03:06:42;25.13;;;21.50;;
41426;SDS011;27171;51.812;19.514;2022-10-17T03:09:45;25.90;;;22.73;;
41426;SDS011;27171;51.812;19.514;2022-10-17T03:12:47;25.38;;;21.45;;
41426;SDS011;27171;51.812;19.514;2022-10-17T03:15:48;25.10;;;22.23;;
41426;SDS011;27171;51.812;19.514;2022-10-17T03:18:50;23.42;;;20.90;;
41426;SDS011;27171;51.812;19.514;2022-10-17T03:21:51;24.98;;;21.67;;
41426;SDS011;27171;51.812;19.514;2022-10-17T03:24:52;25.20;;;22.50;;
41426;SDS011;27171;51.812;19.514;2022-10-17T03:27:54;23.48;;;20.98;;
41426;SDS011;27171;51.812;19.514;2022-10-17T03:30:57;22.38;;;19.95;;
41426;SDS011;27171;51.812;19.514;2022-10-17T03:34:00;25.45;;;20.52;;
41426;SDS011;27171;51.812;19.514;2022-10-17T03:37:02;23.00;;;20.50;;
41426;SDS011;27171;51.812;19.514;2022-10-17T03:40:06;24.13;;;21.30;;
41426;SDS011;27171;51.812;19.514;2022-10-17T03:43:07;24.55;;;21.73;;
41426;SDS011;27171;51.812;19.514;2022-10-17T03:46:08;21.75;;;19.45;;
41426;SDS011;27171;51.812;19.514;2022-10-17T03:49:11;20.75;;;18.02;;
41426;SDS011;27171;51.812;19.514;2022-10-17T03:52:13;21.05;;;18.85;;
41426;SDS011;27171;51.812;19.514;2022-10-17T03:55:15;21.92;;;18.70;;
41426;SDS011;27171;51.812;19.514;2022-10-17T03:58:17;22.90;;;20.38;;
41426;SDS011;27171;51.812;19.514;2022-10-17T04:01:18;24.48;;;19.52;;
41426;SDS011;27171;51.812;19.514;2022-10-17T04:04:20;22.45;;;19.20;;
41426;SDS011;27171;51.812;19.514;2022-10-17T04:07:21;21.02;;;18.77;;
41426;SDS011;27171;51.812;19.514;2022-10-17T04:10:23;22.50;;;18.80;;
41426;SDS011;27171;51.812;19.514;2022-10-17T04:13:25;24.38;;;20.73;;
41426;SDS011;27171;51.812;19.514;2022-10-17T04:16:27;23.52;;;20.02;;
41426;SDS011;27171;51.812;19.514;2022-10-17T04:19:35;24.05;;;20.20;;
41426;SDS011;27171;51.812;19.514;2022-10-17T04:22:36;20.08;;;18.02;;
41426;SDS011;27171;51.812;19.514;2022-10-17T04:25:38;23.42;;;19.67;;
41426;SDS011;27171;51.812;19.514;2022-10-17T04:28:39;25.35;;;21.02;;
41426;SDS011;27171;51.812;19.514;2022-10-17T04:31:40;23.33;;;20.80;;
41426;SDS011;27171;51.812;19.514;2022-10-17T04:34:58;21.75;;;19.30;;
41426;SDS011;27171;51.812;19.514;2022-10-17T04:38:01;19.40;;;17.27;;
41426;SDS011;27171;51.812;19.514;2022-10-17T04:41:03;22.77;;;19.48;;
41426;SDS011;27171;51.812;19.514;2022-10-17T04:44:06;21.02;;;18.67;;
41426;SDS011;27171;51.812;19.514;2022-10-17T04:47:12;21.80;;;18.95;;
41426;SDS011;27171;51.812;19.514;2022-10-17T04:50:13;23.60;;;19.75;;
41426;SDS011;27171;51.812;19.514;2022-10-17T04:53:15;24.02;;;19.27;;
41426;SDS011;27171;51.812;19.514;2022-10-17T04:56:17;25.98;;;21.25;;
41426;SDS011;27171;51.812;19.514;2022-10-17T04:59:19;24.63;;;20.30;;
41426;SDS011;27171;51.812;19.514;2022-10-17T05:02:26;24.77;;;20.80;;
41426;SDS011;27171;51.812;19.514;2022-10-17T05:05:27;22.63;;;20.35;;
41426;SDS011;27171;51.812;19.514;2022-10-17T05:08:29;22.35;;;19.40;;
41426;SDS011;27171;51.812;19.514;2022-10-17T05:11:31;21.27;;;18.67;;
41426;SDS011;27171;51.812;19.514;2022-10-17T05:14:33;25.17;;;17.92;;
41426;SDS011;27171;51.812;19.514;2022-10-17T05:17:34;23.48;;;19.45;;
41426;SDS011;27171;51.812;19.514;2022-10-17T05:20:36;20.80;;;18.55;;
41426;SDS011;27171;51.812;19.514;2022-10-17T05:23:37;24.35;;;19.65;;
41426;SDS011;27171;51.812;19.514;2022-10-17T05:26:38;21.75;;;19.30;;
41426;SDS011;27171;51.812;19.514;2022-10-17T05:29:39;22.30;;;18.77;;
41426;SDS011;27171;51.812;19.514;2022-10-17T05:32:53;20.90;;;18.33;;
41426;SDS011;27171;51.812;19.514;2022-10-17T05:35:55;22.65;;;19.58;;
41426;SDS011;27171;51.812;19.514;2022-10-17T05:38:57;20.63;;;18.40;;
41426;SDS011;27171;51.812;19.514;2022-10-17T05:41:58;20.08;;;17.17;;
41426;SDS011;27171;51.812;19.514;2022-10-17T05:45:00;20.50;;;18.17;;
41426;SDS011;27171;51.812;19.514;2022-10-17T05:48:01;21.23;;;17.05;;
41426;SDS011;27171;51.812;19.514;2022-10-17T05:51:05;22.05;;;19.58;;
41426;SDS011;27171;51.812;19.514;2022-10-17T05:54:08;22.80;;;19.02;;
41426;SDS011;27171;51.812;19.514;2022-10-17T05:57:10;22.13;;;18.42;;
41426;SDS011;27171;51.812;19.514;2022-10-17T06:00:12;20.52;;;17.90;;
41426;SDS011;27171;51.812;19.514;2022-10-17T06:03:20;20.80;;;18.35;;
41426;SDS011;27171;51.812;19.514;2022-10-17T06:06:21;18.65;;;16.77;;
41426;SDS011;27171;51.812;19.514;2022-10-17T06:09:23;19.15;;;17.20;;
41426;SDS011;27171;51.812;19.514;2022-10-17T06:12:27;18.33;;;16.35;;
41426;SDS011;27171;51.812;19.514;2022-10-17T06:15:29;19.02;;;16.52;;
41426;SDS011;27171;51.812;19.514;2022-10-17T06:18:58;19.15;;;16.95;;
41426;SDS011;27171;51.812;19.514;2022-10-17T06:22:01;20.52;;;16.65;;
41426;SDS011;27171;51.812;19.514;2022-10-17T06:25:02;19.00;;;16.95;;
41426;SDS011;27171;51.812;19.514;2022-10-17T06:28:04;18.63;;;15.93;;
41426;SDS011;27171;51.812;19.514;2022-10-17T06:31:06;21.15;;;16.88;;
41426;SDS011;27171;51.812;19.514;2022-10-17T06:34:09;16.10;;;13.90;;
41426;SDS011;27171;51.812;19.514;2022-10-17T06:37:12;20.98;;;15.98;;
41426;SDS011;27171;51.812;19.514;2022-10-17T06:40:15;17.92;;;15.88;;
41426;SDS011;27171;51.812;19.514;2022-10-17T06:43:16;16.63;;;14.95;;
41426;SDS011;27171;51.812;19.514;2022-10-17T06:46:31;18.15;;;15.00;;
41426;SDS011;27171;51.812;19.514;2022-10-17T06:49:35;19.25;;;16.08;;
41426;SDS011;27171;51.812;19.514;2022-10-17T06:52:52;17.65;;;15.55;;
41426;SDS011;27171;51.812;19.514;2022-10-17T06:56:07;18.58;;;15.50;;
41426;SDS011;27171;51.812;19.514;2022-10-17T06:59:23;18.50;;;14.82;;
41426;SDS011;27171;51.812;19.514;2022-10-17T07:02:31;17.75;;;14.20;;
41426;SDS011;27171;51.812;19.514;2022-10-17T07:05:34;15.38;;;13.77;;
41426;SDS011;27171;51.812;19.514;2022-10-17T07:08:36;17.48;;;14.35;;
41426;SDS011;27171;51.812;19.514;2022-10-17T07:11:37;15.77;;;13.48;;
41426;SDS011;27171;51.812;19.514;2022-10-17T07:14:39;19.38;;;14.73;;
41426;SDS011;27171;51.812;19.514;2022-10-17T07:17:40;18.02;;;14.00;;
41426;SDS011;27171;51.812;19.514;2022-10-17T07:20:41;19.40;;;15.13;;
41426;SDS011;27171;51.812;19.514;2022-10-17T07:23:43;17.23;;;14.73;;
41426;SDS011;27171;51.812;19.514;2022-10-17T07:26:44;16.33;;;14.20;;
41426;SDS011;27171;51.812;19.514;2022-10-17T07:29:46;15.95;;;14.25;;
41426;SDS011;27171;51.812;19.514;2022-10-17T07:32:54;18.40;;;14.63;;
41426;SDS011;27171;51.812;19.514;2022-10-17T07:35:57;15.98;;;14.38;;
41426;SDS011;27171;51.812;19.514;2022-10-17T07:38:59;21.48;;;14.57;;
41426;SDS011;27171;51.812;19.514;2022-10-17T07:42:01;15.88;;;13.07;;
41426;SDS011;27171;51.812;19.514;2022-10-17T07:45:03;16.45;;;13.80;;
41426;SDS011;27171;51.812;19.514;2022-10-17T07:48:05;16.88;;;14.05;;
41426;SDS011;27171;51.812;19.514;2022-10-17T07:51:08;18.52;;;13.75;;
41426;SDS011;27171;51.812;19.514;2022-10-17T07:54:09;19.52;;;14.45;;
41426;SDS011;27171;51.812;19.514;2022-10-17T07:57:10;15.55;;;13.95;;
41426;SDS011;27171;51.812;19.514;2022-10-17T08:00:11;14.63;;;13.13;;
41426;SDS011;27171;51.812;19.514;2022-10-17T08:03:15;15.48;;;13.45;;
41426;SDS011;27171;51.812;19.514;2022-10-17T08:06:17;13.48;;;11.93;;
41426;SDS011;27171;51.812;19.514;2022-10-17T08:09:18;15.38;;;13.77;;
41426;SDS011;27171;51.812;19.514;2022-10-17T08:12:19;15.43;;;13.18;;
41426;SDS011;27171;51.812;19.514;2022-10-17T08:15:21;18.27;;;12.13;;
41426;SDS011;27171;51.812;19.514;2022-10-17T08:18:23;16.67;;;12.45;;
41426;SDS011;27171;51.812;19.514;2022-10-17T08:21:24;15.98;;;14.05;;
41426;SDS011;27171;51.812;19.514;2022-10-17T08:24:25;14.45;;;12.95;;
41426;SDS011;27171;51.812;19.514;2022-10-17T08:27:26;18.55;;;13.27;;
41426;SDS011;27171;51.812;19.514;2022-10-17T08:30:27;17.33;;;12.90;;
41426;SDS011;27171;51.812;19.514;2022-10-17T08:33:28;14.60;;;11.88;;
41426;SDS011;27171;51.812;19.514;2022-10-17T08:36:30;14.55;;;12.98;;
41426;SDS011;27171;51.812;19.514;2022-10-17T08:39:31;16.83;;;13.38;;
41426;SDS011;27171;51.812;19.514;2022-10-17T08:42:41;15.07;;;12.45;;
41426;SDS011;27171;51.812;19.514;2022-10-17T08:45:52;13.48;;;12.02;;
41426;SDS011;27171;51.812;19.514;2022-10-17T08:48:57;14.40;;;12.85;;
41426;SDS011;27171;51.812;19.514;2022-10-17T08:52:10;17.88;;;12.38;;
41426;SDS011;27171;51.812;19.514;2022-10-17T08:55:36;12.88;;;11.45;;
41426;SDS011;27171;51.812;19.514;2022-10-17T08:58:39;14.70;;;11.40;;
41426;SDS011;27171;51.812;19.514;2022-10-17T09:05:13;15.30;;;11.70;;
41426;SDS011;27171;51.812;19.514;2022-10-17T09:24:58;12.95;;;11.65;;
41426;SDS011;27171;51.812;19.514;2022-10-17T09:28:03;14.35;;;11.90;;
41426;SDS011;27171;51.812;19.514;2022-10-17T09:37:28;12.07;;;10.90;;
41426;SDS011;27171;51.812;19.514;2022-10-17T09:40:32;13.63;;;12.23;;
41426;SDS011;27171;51.812;19.514;2022-10-17T09:43:34;13.43;;;12.18;;
41426;SDS011;27171;51.812;19.514;2022-10-17T09:50:32;12.88;;;10.93;;
41426;SDS011;27171;51.812;19.514;2022-10-17T09:53:56;16.08;;;12.30;;
41426;SDS011;27171;51.812;19.514;2022-10-17T09:57:05;13.55;;;12.20;;
41426;SDS011;27171;51.812;19.514;2022-10-17T10:03:22;13.23;;;11.88;;
41426;SDS011;27171;51.812;19.514;2022-10-17T10:06:26;13.35;;;11.65;;
41426;SDS011;27171;51.812;19.514;2022-10-17T10:09:29;13.98;;;12.57;;
41426;SDS011;27171;51.812;19.514;2022-10-17T10:12:33;13.88;;;12.40;;
41426;SDS011;27171;51.812;19.514;2022-10-17T10:15:36;13.93;;;11.52;;
41426;SDS011;27171;51.812;19.514;2022-10-17T10:18:39;14.40;;;12.55;;
41426;SDS011;27171;51.812;19.514;2022-10-17T10:21:44;13.05;;;11.80;;
41426;SDS011;27171;51.812;19.514;2022-10-17T10:25:28;13.63;;;11.88;;
41426;SDS011;27171;51.812;19.514;2022-10-17T10:28:24;16.08;;;14.20;;
41426;SDS011;27171;51.812;19.514;2022-10-17T10:31:31;16.85;;;13.00;;
41426;SDS011;27171;51.812;19.514;2022-10-17T10:34:56;12.85;;;11.48;;
41426;SDS011;27171;51.812;19.514;2022-10-17T10:38:07;12.30;;;11.10;;
41426;SDS011;27171;51.812;19.514;2022-10-17T10:41:10;12.40;;;10.90;;
41426;SDS011;27171;51.812;19.514;2022-10-17T10:44:12;13.70;;;10.70;;
41426;SDS011;27171;51.812;19.514;2022-10-17T10:47:23;13.52;;;12.13;;
41426;SDS011;27171;51.812;19.514;2022-10-17T10:56:52;14.70;;;12.77;;
41426;SDS011;27171;51.812;19.514;2022-10-17T11:00:00;13.20;;;11.90;;
41426;SDS011;27171;51.812;19.514;2022-10-17T11:03:13;12.32;;;10.85;;
41426;SDS011;27171;51.812;19.514;2022-10-17T11:06:28;11.00;;;9.82;;
41426;SDS011;27171;51.812;19.514;2022-10-17T11:12:58;13.13;;;11.25;;
41426;SDS011;27171;51.812;19.514;2022-10-17T11:19:27;13.55;;;10.80;;
41426;SDS011;27171;51.812;19.514;2022-10-17T11:22:41;13.65;;;12.15;;
41426;SDS011;27171;51.812;19.514;2022-10-17T11:25:46;12.27;;;10.50;;
41426;SDS011;27171;51.812;19.514;2022-10-17T11:28:51;12.18;;;10.93;;
41426;SDS011;27171;51.812;19.514;2022-10-17T11:31:53;12.32;;;11.02;;
41426;SDS011;27171;51.812;19.514;2022-10-17T11:34:59;12.90;;;10.32;;
41426;SDS011;27171;51.812;19.514;2022-10-17T11:45:19;12.40;;;11.23;;
41426;SDS011;27171;51.812;19.514;2022-10-17T11:48:24;11.05;;;9.95;;
41426;SDS011;27171;51.812;19.514;2022-10-17T11:51:28;15.35;;;10.95;;
41426;SDS011;27171;51.812;19.514;2022-10-17T11:54:49;12.20;;;10.80;;
41426;SDS011;27171;51.812;19.514;2022-10-17T11:58:11;11.75;;;10.50;;
41426;SDS011;27171;51.812;19.514;2022-10-17T12:01:39;10.88;;;9.85;;
41426;SDS011;27171;51.812;19.514;2022-10-17T12:04:54;11.18;;;10.07;;
41426;SDS011;27171;51.812;19.514;2022-10-17T12:08:21;12.13;;;10.35;;
41426;SDS011;27171;51.812;19.514;2022-10-17T12:14:39;11.43;;;9.48;;
41426;SDS011;27171;51.812;19.514;2022-10-17T12:17:53;10.25;;;9.23;;
41426;SDS011;27171;51.812;19.514;2022-10-17T12:20:59;10.00;;;9.07;;
41426;SDS011;27171;51.812;19.514;2022-10-17T12:24:01;10.88;;;9.35;;
41426;SDS011;27171;51.812;19.514;2022-10-17T12:30:32;9.73;;;8.73;;
41426;SDS011;27171;51.812;19.514;2022-10-17T12:33:36;11.75;;;9.43;;
41426;SDS011;27171;51.812;19.514;2022-10-17T12:36:47;11.32;;;8.85;;
41426;SDS011;27171;51.812;19.514;2022-10-17T12:39:49;9.85;;;8.85;;
41426;SDS011;27171;51.812;19.514;2022-10-17T12:42:51;9.52;;;8.60;;
41426;SDS011;27171;51.812;19.514;2022-10-17T12:45:59;11.70;;;9.63;;
41426;SDS011;27171;51.812;19.514;2022-10-17T12:49:01;10.15;;;8.85;;
41426;SDS011;27171;51.812;19.514;2022-10-17T12:55:23;10.50;;;9.50;;
41426;SDS011;27171;51.812;19.514;2022-10-17T12:58:25;9.70;;;8.70;;
41426;SDS011;27171;51.812;19.514;2022-10-17T13:01:28;10.60;;;9.60;;
41426;SDS011;27171;51.812;19.514;2022-10-17T13:04:32;10.27;;;9.30;;
41426;SDS011;27171;51.812;19.514;2022-10-17T13:07:36;15.32;;;10.32;;
41426;SDS011;27171;51.812;19.514;2022-10-17T13:10:43;10.90;;;9.60;;
41426;SDS011;27171;51.812;19.514;2022-10-17T13:13:46;11.88;;;10.52;;
41426;SDS011;27171;51.812;19.514;2022-10-17T13:16:50;11.95;;;10.80;;
41426;SDS011;27171;51.812;19.514;2022-10-17T13:19:53;12.27;;;10.85;;
41426;SDS011;27171;51.812;19.514;2022-10-17T13:22:55;10.48;;;9.43;;
41426;SDS011;27171;51.812;19.514;2022-10-17T13:26:01;10.75;;;9.65;;
41426;SDS011;27171;51.812;19.514;2022-10-17T13:29:16;11.30;;;9.48;;
41426;SDS011;27171;51.812;19.514;2022-10-17T13:32:17;11.95;;;9.48;;
41426;SDS011;27171;51.812;19.514;2022-10-17T13:35:36;10.60;;;9.43;;
41426;SDS011;27171;51.812;19.514;2022-10-17T13:38:38;11.68;;;9.50;;
41426;SDS011;27171;51.812;19.514;2022-10-17T13:41:39;12.25;;;10.02;;
41426;SDS011;27171;51.812;19.514;2022-10-17T13:44:41;10.18;;;9.15;;
41426;SDS011;27171;51.812;19.514;2022-10-17T13:47:42;12.18;;;10.40;;
41426;SDS011;27171;51.812;19.514;2022-10-17T13:50:45;12.00;;;10.88;;
41426;SDS011;27171;51.812;19.514;2022-10-17T13:53:48;14.40;;;10.25;;
41426;SDS011;27171;51.812;19.514;2022-10-17T13:56:54;11.88;;;9.73;;
41426;SDS011;27171;51.812;19.514;2022-10-17T13:59:57;11.82;;;10.63;;
41426;SDS011;27171;51.812;19.514;2022-10-17T14:03:00;13.23;;;10.15;;
41426;SDS011;27171;51.812;19.514;2022-10-17T14:09:20;12.10;;;10.80;;
41426;SDS011;27171;51.812;19.514;2022-10-17T14:12:22;14.70;;;10.18;;
41426;SDS011;27171;51.812;19.514;2022-10-17T14:15:24;10.85;;;9.75;;
41426;SDS011;27171;51.812;19.514;2022-10-17T14:18:32;13.52;;;9.63;;
41426;SDS011;27171;51.812;19.514;2022-10-17T14:21:35;11.88;;;9.68;;
41426;SDS011;27171;51.812;19.514;2022-10-17T14:24:36;11.63;;;9.65;;
41426;SDS011;27171;51.812;19.514;2022-10-17T14:27:51;14.70;;;10.43;;
41426;SDS011;27171;51.812;19.514;2022-10-17T14:31:07;12.57;;;10.73;;
41426;SDS011;27171;51.812;19.514;2022-10-17T14:34:21;12.50;;;10.32;;
41426;SDS011;27171;51.812;19.514;2022-10-17T14:37:40;13.02;;;10.02;;
41426;SDS011;27171;51.812;19.514;2022-10-17T14:40:51;11.95;;;9.32;;
41426;SDS011;27171;51.812;19.514;2022-10-17T14:43:56;15.27;;;10.32;;
41426;SDS011;27171;51.812;19.514;2022-10-17T14:47:03;11.45;;;9.63;;
41426;SDS011;27171;51.812;19.514;2022-10-17T14:50:19;12.00;;;9.32;;
41426;SDS011;27171;51.812;19.514;2022-10-17T14:53:22;11.32;;;9.73;;
41426;SDS011;27171;51.812;19.514;2022-10-17T14:56:25;12.35;;;9.65;;
41426;SDS011;27171;51.812;19.514;2022-10-17T14:59:27;14.52;;;9.68;;
41426;SDS011;27171;51.812;19.514;2022-10-17T15:02:29;10.88;;;9.70;;
41426;SDS011;27171;51.812;19.514;2022-10-17T15:05:30;10.60;;;9.20;;
41426;SDS011;27171;51.812;19.514;2022-10-17T15:08:31;10.05;;;8.95;;
41426;SDS011;27171;51.812;19.514;2022-10-17T15:11:32;11.93;;;9.43;;
41426;SDS011;27171;51.812;19.514;2022-10-17T15:14:34;12.73;;;9.27;;
41426;SDS011;27171;51.812;19.514;2022-10-17T15:17:35;11.00;;;9.13;;
41426;SDS011;27171;51.812;19.514;2022-10-17T15:20:36;14.68;;;9.70;;
41426;SDS011;27171;51.812;19.514;2022-10-17T15:23:38;11.85;;;9.50;;
41426;SDS011;27171;51.812;19.514;2022-10-17T15:26:40;12.30;;;9.25;;
41426;SDS011;27171;51.812;19.514;2022-10-17T15:29:41;12.82;;;9.07;;
41426;SDS011;27171;51.812;19.514;2022-10-17T15:32:43;15.02;;;9.70;;
41426;SDS011;27171;51.812;19.514;2022-10-17T15:35:44;14.60;;;10.18;;
41426;SDS011;27171;51.812;19.514;2022-10-17T15:38:47;16.63;;;10.55;;
41426;SDS011;27171;51.812;19.514;2022-10-17T15:41:48;13.35;;;10.75;;
41426;SDS011;27171;51.812;19.514;2022-10-17T15:44:50;15.48;;;10.68;;
41426;SDS011;27171;51.812;19.514;2022-10-17T15:47:53;12.23;;;9.98;;
41426;SDS011;27171;51.812;19.514;2022-10-17T15:50:56;15.05;;;11.23;;
41426;SDS011;27171;51.812;19.514;2022-10-17T15:53:57;11.77;;;9.90;;
41426;SDS011;27171;51.812;19.514;2022-10-17T15:56:58;13.77;;;10.43;;
41426;SDS011;27171;51.812;19.514;2022-10-17T15:59:59;15.80;;;10.60;;
41426;SDS011;27171;51.812;19.514;2022-10-17T16:03:01;14.63;;;11.30;;
41426;SDS011;27171;51.812;19.514;2022-10-17T16:06:02;14.35;;;12.20;;
41426;SDS011;27171;51.812;19.514;2022-10-17T16:09:03;15.07;;;12.35;;
41426;SDS011;27171;51.812;19.514;2022-10-17T16:12:05;13.25;;;11.90;;
41426;SDS011;27171;51.812;19.514;2022-10-17T16:15:12;14.63;;;12.07;;
41426;SDS011;27171;51.812;19.514;2022-10-17T16:18:15;15.45;;;12.40;;
41426;SDS011;27171;51.812;19.514;2022-10-17T16:21:16;14.23;;;12.35;;
41426;SDS011;27171;51.812;19.514;2022-10-17T16:24:19;15.27;;;13.23;;
41426;SDS011;27171;51.812;19.514;2022-10-17T16:27:21;20.45;;;15.88;;
41426;SDS011;27171;51.812;19.514;2022-10-17T16:30:23;20.60;;;15.50;;
41426;SDS011;27171;51.812;19.514;2022-10-17T16:33:25;18.38;;;15.73;;
41426;SDS011;27171;51.812;19.514;2022-10-17T16:36:26;22.65;;;15.88;;
41426;SDS011;27171;51.812;19.514;2022-10-17T16:39:28;18.67;;;14.50;;
41426;SDS011;27171;51.812;19.514;2022-10-17T16:42:29;19.67;;;15.05;;
41426;SDS011;27171;51.812;19.514;2022-10-17T16:45:30;17.60;;;14.20;;
41426;SDS011;27171;51.812;19.514;2022-10-17T16:48:31;18.75;;;15.25;;
41426;SDS011;27171;51.812;19.514;2022-10-17T16:51:33;18.00;;;15.40;;
41426;SDS011;27171;51.812;19.514;2022-10-17T16:54:35;17.00;;;14.43;;
41426;SDS011;27171;51.812;19.514;2022-10-17T16:57:36;16.55;;;13.85;;
41426;SDS011;27171;51.812;19.514;2022-10-17T17:00:38;17.27;;;13.32;;
41426;SDS011;27171;51.812;19.514;2022-10-17T17:03:40;22.50;;;14.50;;
41426;SDS011;27171;51.812;19.514;2022-10-17T17:06:42;17.13;;;13.20;;
41426;SDS011;27171;51.812;19.514;2022-10-17T17:09:43;15.32;;;12.95;;
41426;SDS011;27171;51.812;19.514;2022-10-17T17:12:45;15.30;;;12.40;;
41426;SDS011;27171;51.812;19.514;2022-10-17T17:15:46;13.45;;;12.00;;
41426;SDS011;27171;51.812;19.514;2022-10-17T17:18:47;17.63;;;12.55;;
41426;SDS011;27171;51.812;19.514;2022-10-17T17:21:53;15.05;;;12.98;;
41426;SDS011;27171;51.812;19.514;2022-10-17T17:24:54;16.75;;;12.63;;
41426;SDS011;27171;51.812;19.514;2022-10-17T17:27:55;13.65;;;12.18;;
41426;SDS011;27171;51.812;19.514;2022-10-17T17:30:57;14.70;;;11.95;;
41426;SDS011;27171;51.812;19.514;2022-10-17T17:33:58;15.75;;;12.73;;
41426;SDS011;27171;51.812;19.514;2022-10-17T17:36:59;15.27;;;12.73;;
41426;SDS011;27171;51.812;19.514;2022-10-17T17:40:01;16.00;;;13.23;;
41426;SDS011;27171;51.812;19.514;2022-10-17T17:43:02;15.23;;;13.05;;
41426;SDS011;27171;51.812;19.514;2022-10-17T17:46:03;16.05;;;12.68;;
41426;SDS011;27171;51.812;19.514;2022-10-17T17:49:04;14.98;;;12.43;;
41426;SDS011;27171;51.812;19.514;2022-10-17T17:52:05;13.57;;;12.18;;
41426;SDS011;27171;51.812;19.514;2022-10-17T17:55:07;14.45;;;12.48;;
41426;SDS011;27171;51.812;19.514;2022-10-17T17:58:08;16.40;;;12.05;;
41426;SDS011;27171;51.812;19.514;2022-10-17T18:01:14;14.57;;;12.52;;
41426;SDS011;27171;51.812;19.514;2022-10-17T18:04:19;16.55;;;11.18;;
41426;SDS011;27171;51.812;19.514;2022-10-17T18:07:21;15.38;;;11.98;;
41426;SDS011;27171;51.812;19.514;2022-10-17T18:10:23;12.40;;;10.75;;
41426;SDS011;27171;51.812;19.514;2022-10-17T18:13:25;15.07;;;10.80;;
41426;SDS011;27171;51.812;19.514;2022-10-17T18:16:27;11.80;;;10.60;;
41426;SDS011;27171;51.812;19.514;2022-10-17T18:19:29;14.70;;;10.85;;
41426;SDS011;27171;51.812;19.514;2022-10-17T18:22:30;11.90;;;10.35;;
41426;SDS011;27171;51.812;19.514;2022-10-17T18:25:31;13.07;;;10.90;;
41426;SDS011;27171;51.812;19.514;2022-10-17T18:28:33;12.90;;;10.93;;
41426;SDS011;27171;51.812;19.514;2022-10-17T18:31:35;14.98;;;11.20;;
41426;SDS011;27171;51.812;19.514;2022-10-17T18:34:37;10.98;;;9.50;;
41426;SDS011;27171;51.812;19.514;2022-10-17T18:37:38;14.30;;;10.80;;
41426;SDS011;27171;51.812;19.514;2022-10-17T18:40:39;12.60;;;10.52;;
41426;SDS011;27171;51.812;19.514;2022-10-17T18:43:41;12.52;;;10.70;;
41426;SDS011;27171;51.812;19.514;2022-10-17T18:46:43;17.35;;;11.40;;
41426;SDS011;27171;51.812;19.514;2022-10-17T18:49:44;14.98;;;11.52;;
41426;SDS011;27171;51.812;19.514;2022-10-17T18:52:46;13.13;;;10.45;;
41426;SDS011;27171;51.812;19.514;2022-10-17T18:55:49;14.32;;;11.70;;
41426;SDS011;27171;51.812;19.514;2022-10-17T18:58:50;13.82;;;10.90;;
41426;SDS011;27171;51.812;19.514;2022-10-17T19:01:52;15.27;;;10.98;;
41426;SDS011;27171;51.812;19.514;2022-10-17T19:04:53;14.23;;;11.45;;
41426;SDS011;27171;51.812;19.514;2022-10-17T19:07:54;13.98;;;10.82;;
41426;SDS011;27171;51.812;19.514;2022-10-17T19:10:55;13.52;;;10.95;;
41426;SDS011;27171;51.812;19.514;2022-10-17T19:13:57;12.20;;;9.93;;
41426;SDS011;27171;51.812;19.514;2022-10-17T19:16:59;14.07;;;10.20;;
41426;SDS011;27171;51.812;19.514;2022-10-17T19:20:00;13.00;;;10.50;;
41426;SDS011;27171;51.812;19.514;2022-10-17T19:23:02;14.60;;;10.45;;
41426;SDS011;27171;51.812;19.514;2022-10-17T19:26:04;13.93;;;10.50;;
41426;SDS011;27171;51.812;19.514;2022-10-17T19:29:08;12.20;;;9.52;;
41426;SDS011;27171;51.812;19.514;2022-10-17T19:32:12;11.48;;;9.32;;